createdAt,value
2018-10-17T00:00:03.716Z,100201.86
2018-10-17T00:02:31.638Z,100203.83
2018-10-17T00:04:59.270Z,100209.53
2018-10-17T00:07:27.036Z,100209.88
2018-10-17T00:09:54.630Z,100203.20
2018-10-17T00:12:22.679Z,100202.84
2018-10-17T00:14:50.315Z,100204.30
2018-10-17T00:17:17.926Z,100208.47
2018-10-17T00:19:45.599Z,100202.66
2018-10-17T00:22:13.535Z,100206.20
2018-10-17T00:24:41.176Z,100195.52
2018-10-17T00:27:09.712Z,100205.89
2018-10-17T00:29:37.344Z,100200.20
2018-10-17T00:32:05.446Z,100206.91
2018-10-17T00:34:33.067Z,100205.61
2018-10-17T00:37:00.700Z,100210.13
2018-10-17T00:39:28.341Z,100198.13
2018-10-17T00:41:56.276Z,100202.53
2018-10-17T00:44:23.968Z,100200.83
2018-10-17T00:46:51.588Z,100198.08
2018-10-17T00:49:19.211Z,100198.31
2018-10-17T00:51:47.222Z,100192.14
2018-10-17T00:54:14.902Z,100190.80
2018-10-17T00:56:42.535Z,100189.94
2018-10-17T00:59:17.090Z,100185.81
2018-10-17T01:01:45.419Z,100184.01
2018-10-17T01:04:13.003Z,100182.52
2018-10-17T01:06:40.987Z,100175.73
2018-10-17T01:09:11.172Z,100179.11
2018-10-17T01:11:40.235Z,100174.00
2018-10-17T01:14:08.219Z,100168.55
2018-10-17T01:16:36.271Z,100168.55
2018-10-17T01:19:04.542Z,100171.22
2018-10-17T01:21:32.440Z,100171.22
2018-10-17T01:24:00.483Z,100168.91
2018-10-17T01:26:28.114Z,100172.64
2018-10-17T01:28:55.772Z,100172.52
2018-10-17T01:31:23.435Z,100174.72
2018-10-17T01:33:51.634Z,100176.52
2018-10-17T01:36:19.282Z,100178.72
2018-10-17T01:38:47.035Z,100170.70
2018-10-17T01:41:14.772Z,100171.19
2018-10-17T01:43:42.873Z,100167.30
2018-10-17T01:46:10.466Z,100163.91
2018-10-17T01:48:38.087Z,100158.22
2018-10-17T01:51:05.707Z,100164.19
2018-10-17T01:53:33.619Z,100158.61
2018-10-17T01:56:01.286Z,100161.04
2018-10-17T01:58:29.271Z,100157.66
2018-10-17T02:00:57.081Z,100155.34
2018-10-17T02:03:25.211Z,100160.33
2018-10-17T02:05:52.807Z,100156.91
2018-10-17T02:08:20.409Z,100151.37
2018-10-17T02:10:48.038Z,100147.95
2018-10-17T02:13:16.055Z,100143.59
2018-10-17T02:15:43.675Z,100136.20
2018-10-17T02:18:11.236Z,100131.49
2018-10-17T02:20:38.787Z,100132.83
2018-10-17T02:23:06.817Z,100133.30
2018-10-17T02:25:34.357Z,100121.20
2018-10-17T02:28:01.950Z,100121.58
2018-10-17T02:30:29.513Z,100130.45
2018-10-17T02:32:57.406Z,100126.13
2018-10-17T02:35:24.918Z,100127.72
2018-10-17T02:37:52.506Z,100129.31
2018-10-17T02:40:20.010Z,100131.02
2018-10-17T02:42:48.030Z,100119.39
2018-10-17T02:45:15.637Z,100123.06
2018-10-17T02:47:43.281Z,100128.98
2018-10-17T02:50:12.320Z,100125.72
2018-10-17T02:52:41.093Z,100137.25
2018-10-17T02:55:08.982Z,100132.38
2018-10-17T02:57:37.465Z,100126.22
2018-10-17T03:00:05.077Z,100129.36
2018-10-17T03:02:32.969Z,100125.59
2018-10-17T03:05:00.987Z,100132.27
2018-10-17T03:07:28.730Z,100128.27
2018-10-17T03:09:56.290Z,100137.49
2018-10-17T03:12:24.250Z,100133.61
2018-10-17T03:14:51.758Z,100131.67
2018-10-17T03:17:19.480Z,100140.29
2018-10-17T03:19:47.479Z,100141.14
2018-10-17T03:22:15.047Z,100144.14
2018-10-17T03:24:42.645Z,100145.23
2018-10-17T03:27:10.631Z,100150.35
2018-10-17T03:29:38.149Z,100145.86
2018-10-17T03:32:05.645Z,100148.42
2018-10-17T03:34:33.197Z,100150.58
2018-10-17T03:37:01.124Z,100150.83
2018-10-17T03:39:28.641Z,100152.16
2018-10-17T03:41:56.250Z,100157.49
2018-10-17T03:44:24.688Z,100151.80
2018-10-17T03:46:52.247Z,100160.88
2018-10-17T03:49:19.893Z,100169.59
2018-10-17T03:51:47.356Z,100161.48
2018-10-17T03:54:15.365Z,100165.76
2018-10-17T03:56:42.866Z,100164.16
2018-10-17T03:59:10.505Z,100164.78
2018-10-17T04:01:38.018Z,100161.64
2018-10-17T04:04:05.975Z,100162.00
2018-10-17T04:06:33.480Z,100152.05
2018-10-17T04:09:01.026Z,100148.41
2018-10-17T04:11:28.810Z,100150.09
2018-10-17T04:13:57.010Z,100149.73
2018-10-17T04:16:24.517Z,100160.42
2018-10-17T04:18:52.111Z,100164.52
2018-10-17T04:21:19.649Z,100162.33
2018-10-17T04:23:47.506Z,100158.59
2018-10-17T04:26:15.074Z,100165.61
2018-10-17T04:28:42.588Z,100165.97
2018-10-17T04:31:10.554Z,100169.73
2018-10-17T04:33:38.046Z,100172.05
2018-10-17T04:36:05.597Z,100170.11
2018-10-17T04:38:33.426Z,100169.50
2018-10-17T04:41:01.002Z,100171.17
2018-10-17T04:43:28.634Z,100175.17
2018-10-17T04:45:56.620Z,100183.99
2018-10-17T04:48:24.199Z,100184.09
2018-10-17T04:50:51.738Z,100179.63
2018-10-17T04:53:19.601Z,100177.79
2018-10-17T04:55:47.130Z,100176.56
2018-10-17T04:58:14.634Z,100175.73
2018-10-17T05:00:42.588Z,100174.66
2018-10-17T05:03:12.019Z,100176.71
2018-10-17T05:05:39.562Z,100169.19
2018-10-17T05:08:07.470Z,100167.75
2018-10-17T05:10:35.034Z,100169.44
2018-10-17T05:13:02.592Z,100171.28
2018-10-17T05:15:30.421Z,100174.30
2018-10-17T05:17:58.273Z,100169.95
2018-10-17T05:20:25.858Z,100172.83
2018-10-17T05:22:54.467Z,100168.25
2018-10-17T05:25:21.990Z,100163.65
2018-10-17T05:27:49.599Z,100169.09
2018-10-17T05:30:17.409Z,100166.81
2018-10-17T05:32:44.925Z,100166.67
2018-10-17T05:35:12.467Z,100174.55
2018-10-17T05:37:40.476Z,100178.41
2018-10-17T05:40:07.975Z,100173.44
2018-10-17T05:42:35.559Z,100175.23
2018-10-17T05:45:03.411Z,100180.09
2018-10-17T05:47:30.940Z,100182.40
2018-10-17T05:49:58.522Z,100181.58
2018-10-17T05:52:26.403Z,100180.50
2018-10-17T05:54:54.039Z,100179.78
2018-10-17T05:57:21.625Z,100180.64
2018-10-17T05:59:49.560Z,100181.50
2018-10-17T06:02:20.684Z,100187.30
2018-10-17T06:04:48.270Z,100183.19
2018-10-17T06:07:16.206Z,100184.41
2018-10-17T06:09:43.704Z,100182.11
2018-10-17T06:12:12.678Z,100185.13
2018-10-17T06:14:40.634Z,100189.23
2018-10-17T06:17:11.944Z,100184.52
2018-10-17T06:19:39.481Z,100182.09
2018-10-17T06:22:07.298Z,100177.88
2018-10-17T06:24:35.789Z,100185.97
2018-10-17T06:27:03.313Z,100183.20
2018-10-17T06:29:31.258Z,100190.47
2018-10-17T06:34:32.378Z,100185.77
2018-10-17T06:37:01.880Z,100186.35
2018-10-17T06:39:29.433Z,100190.59
2018-10-17T06:41:56.987Z,100188.16
2018-10-17T06:44:26.041Z,100187.08
2018-10-17T06:46:53.544Z,100188.05
2018-10-17T06:49:21.145Z,100187.08
2018-10-17T06:51:50.685Z,100188.77
2018-10-17T06:54:18.494Z,100196.15
2018-10-17T06:56:47.618Z,100195.56
2018-10-17T06:59:15.819Z,100192.16
2018-10-17T07:01:44.805Z,100189.48
2018-10-17T07:04:12.305Z,100196.99
2018-10-17T07:06:43.593Z,100196.35
2018-10-17T07:09:11.606Z,100204.34
2018-10-17T07:11:39.468Z,100206.97
2018-10-17T07:14:08.478Z,100211.07
2018-10-17T07:16:36.625Z,100215.53
2018-10-17T07:19:04.589Z,100212.08
2018-10-17T07:21:32.495Z,100213.03
2018-10-17T07:24:00.277Z,100216.77
2018-10-17T07:26:27.798Z,100205.48
2018-10-17T07:28:56.017Z,100194.77
2018-10-17T07:31:23.493Z,100194.84
2018-10-17T07:33:51.013Z,100196.58
2018-10-17T07:36:18.956Z,100214.88
2018-10-17T07:38:46.437Z,100215.88
2018-10-17T07:41:14.654Z,100207.52
2018-10-17T07:43:43.448Z,100213.58
2018-10-17T07:46:10.964Z,100204.33
2018-10-17T07:48:38.507Z,100209.54
2018-10-17T07:51:06.467Z,100207.89
2018-10-17T07:53:34.369Z,100210.30
2018-10-17T07:56:02.076Z,100209.39
2018-10-17T07:58:30.098Z,100203.19
2018-10-17T08:00:57.607Z,100209.20
2018-10-17T08:03:25.404Z,100206.67
2018-10-17T08:05:53.303Z,100201.80
2018-10-17T08:08:20.909Z,100200.11
2018-10-17T08:10:48.946Z,100201.16
2018-10-17T08:13:17.482Z,100195.62
2018-10-17T08:15:45.007Z,100198.50
2018-10-17T08:18:12.566Z,100195.59
2018-10-17T08:20:40.478Z,100200.43
2018-10-17T08:23:08.765Z,100195.77
2018-10-17T08:25:36.432Z,100195.09
2018-10-17T08:28:04.421Z,100192.79
2018-10-17T08:30:31.945Z,100196.33
2018-10-17T08:32:59.452Z,100189.06
2018-10-17T08:35:27.603Z,100197.63
2018-10-17T08:37:55.412Z,100201.62
2018-10-17T08:40:22.719Z,100201.66
2018-10-17T08:42:50.708Z,100193.93
2018-10-17T08:45:18.271Z,100187.68
2018-10-17T08:47:45.799Z,100183.10
2018-10-17T08:50:13.752Z,100186.06
2018-10-17T08:52:42.399Z,100186.70
2018-10-17T08:55:09.935Z,100177.88
2018-10-17T08:57:37.867Z,100177.78
2018-10-17T09:00:06.677Z,100175.89
2018-10-17T09:02:34.190Z,100175.45
2018-10-17T09:05:02.069Z,100179.75
2018-10-17T09:07:29.580Z,100179.81
2018-10-17T09:09:57.185Z,100180.88
2018-10-17T09:12:28.198Z,100179.55
2018-10-17T09:14:56.348Z,100183.30
2018-10-17T09:17:23.889Z,100175.45
2018-10-17T09:19:51.961Z,100179.00
2018-10-17T09:22:19.557Z,100182.23
2018-10-17T09:24:46.853Z,100185.08
2018-10-17T09:27:15.677Z,100175.64
2018-10-17T09:29:43.452Z,100172.25
2018-10-17T09:32:11.941Z,100170.38
2018-10-17T09:34:39.791Z,100168.83
2018-10-17T09:37:07.330Z,100173.52
2018-10-17T09:39:34.866Z,100170.78
2018-10-17T09:42:02.750Z,100172.89
2018-10-17T09:44:30.301Z,100168.46
2018-10-17T09:46:57.838Z,100166.78
2018-10-17T09:49:26.404Z,100163.44
2018-10-17T09:51:54.038Z,100159.77
2018-10-17T09:54:22.218Z,100164.02
2018-10-17T09:56:50.545Z,100156.73
2018-10-17T09:59:18.051Z,100167.25
2018-10-17T10:01:48.787Z,100156.30
2018-10-17T10:04:16.397Z,100160.31
2018-10-17T10:06:45.651Z,100155.02
2018-10-17T10:09:13.557Z,100148.91
2018-10-17T10:11:41.223Z,100148.75
2018-10-17T10:14:09.362Z,100152.02
2018-10-17T10:16:38.366Z,100145.80
2018-10-17T10:19:05.881Z,100146.87
2018-10-17T10:21:33.458Z,100150.03
2018-10-17T10:24:08.328Z,100147.29
2018-10-17T10:26:37.144Z,100147.86
2018-10-17T10:29:05.277Z,100148.95
2018-10-17T10:31:34.289Z,100152.86
2018-10-17T10:34:03.144Z,100143.97
2018-10-17T10:36:31.360Z,100155.91
2018-10-17T10:38:59.282Z,100149.95
2018-10-17T10:41:26.821Z,100153.31
2018-10-17T10:43:54.446Z,100148.91
2018-10-17T10:46:22.413Z,100142.11
2018-10-17T10:48:51.414Z,100142.00
2018-10-17T10:51:19.121Z,100142.97
2018-10-17T10:53:48.619Z,100147.41
2018-10-17T10:56:17.181Z,100150.09
2018-10-17T10:58:45.422Z,100152.77
2018-10-17T11:01:14.140Z,100148.48
2018-10-17T11:03:41.780Z,100142.77
2018-10-17T11:06:09.354Z,100136.58
2018-10-17T11:08:38.269Z,100139.63
2018-10-17T11:11:05.828Z,100136.83
2018-10-17T11:13:33.324Z,100135.66
2018-10-17T11:16:01.312Z,100137.31
2018-10-17T11:18:28.882Z,100134.84
2018-10-17T11:20:57.513Z,100130.77
2018-10-17T11:23:25.323Z,100124.39
2018-10-17T11:25:54.674Z,100125.58
2018-10-17T11:28:22.177Z,100127.40
2018-10-17T11:30:51.848Z,100121.47
2018-10-17T11:33:20.583Z,100122.02
2018-10-17T11:35:49.813Z,100123.47
2018-10-17T11:38:18.700Z,100120.18
2018-10-17T11:40:46.379Z,100122.50
2018-10-17T11:43:15.219Z,100116.33
2018-10-17T11:45:44.131Z,100115.75
2018-10-17T11:50:52.037Z,100107.89
2018-10-17T11:53:19.581Z,100109.04
2018-10-17T11:55:48.974Z,100104.72
2018-10-17T11:58:16.972Z,100105.72
2018-10-17T12:00:44.481Z,100102.39
2018-10-17T12:03:12.762Z,100105.22
2018-10-17T12:05:41.565Z,100102.47
2018-10-17T12:08:08.817Z,100104.68
2018-10-17T12:10:37.745Z,100102.16
2018-10-17T12:13:05.602Z,100101.40
2018-10-17T12:15:33.157Z,100098.86
2018-10-17T12:18:00.807Z,100098.34
2018-10-17T12:20:28.591Z,100096.20
2018-10-17T12:22:56.097Z,100097.48
2018-10-17T12:25:23.896Z,100092.55
2018-10-17T12:27:51.921Z,100087.75
2018-10-17T12:30:20.717Z,100087.81
2018-10-17T12:32:48.746Z,100090.61
2018-10-17T12:35:16.735Z,100094.08
2018-10-17T12:37:44.198Z,100088.64
2018-10-17T12:40:12.020Z,100090.38
2018-10-17T12:42:39.809Z,100083.61
2018-10-17T12:45:07.688Z,100085.84
2018-10-17T12:47:35.221Z,100083.56
2018-10-17T12:50:04.396Z,100088.77
2018-10-17T12:52:32.444Z,100093.25
2018-10-17T12:54:59.979Z,100094.98
2018-10-17T12:57:27.870Z,100089.91
2018-10-17T12:59:57.023Z,100092.36
2018-10-17T13:02:24.677Z,100091.34
2018-10-17T13:04:52.515Z,100086.67
2018-10-17T13:07:20.757Z,100086.39
2018-10-17T13:09:48.601Z,100078.23
2018-10-17T13:12:16.118Z,100077.41
2018-10-17T13:14:43.644Z,100079.11
2018-10-17T13:17:11.591Z,100070.52
2018-10-17T13:19:40.138Z,100071.73
2018-10-17T13:22:08.047Z,100072.28
2018-10-17T13:24:38.121Z,100070.06
2018-10-17T13:27:06.252Z,100067.34
2018-10-17T13:29:33.774Z,100068.39
2018-10-17T13:32:01.638Z,100064.50
2018-10-17T13:34:29.157Z,100063.89
2018-10-17T13:36:56.726Z,100063.03
2018-10-17T13:39:24.640Z,100064.95
2018-10-17T13:41:52.190Z,100062.11
2018-10-17T13:44:19.737Z,100060.75
2018-10-17T13:46:50.216Z,100067.25
2018-10-17T13:49:18.596Z,100060.77
2018-10-17T13:51:46.307Z,100064.34
2018-10-17T13:54:15.925Z,100067.05
2018-10-17T13:56:44.341Z,100054.80
2018-10-17T13:59:12.636Z,100064.23
2018-10-17T14:01:40.547Z,100061.63
2018-10-17T14:04:08.399Z,100061.41
2018-10-17T14:06:36.609Z,100067.17
2018-10-17T14:09:05.449Z,100064.66
2018-10-17T14:11:33.701Z,100062.11
2018-10-17T14:14:01.264Z,100068.89
2018-10-17T14:16:29.456Z,100070.87
2018-10-17T14:18:57.324Z,100067.84
2018-10-17T14:21:24.842Z,100062.08
2018-10-17T14:23:53.827Z,100062.00
2018-10-17T14:26:22.472Z,100062.42
2018-10-17T14:28:51.637Z,100058.53
2018-10-17T14:31:20.517Z,100056.55
2018-10-17T14:33:52.493Z,100059.47
2018-10-17T14:36:20.469Z,100060.61
2018-10-17T14:38:48.371Z,100051.50
2018-10-17T14:41:15.945Z,100056.95
2018-10-17T14:43:43.549Z,100053.09
2018-10-17T14:46:11.454Z,100050.36
2018-10-17T14:48:39.403Z,100051.10
2018-10-17T14:51:06.964Z,100054.66
2018-10-17T14:53:35.566Z,100052.12
2018-10-17T14:56:03.726Z,100055.05
2018-10-17T14:58:31.505Z,100058.28
2018-10-17T15:00:59.395Z,100059.64
2018-10-17T15:03:27.729Z,100064.23
2018-10-17T15:05:55.516Z,100066.45
2018-10-17T15:08:23.386Z,100068.52
2018-10-17T15:10:51.694Z,100062.87
2018-10-17T15:13:20.047Z,100072.35
2018-10-17T15:15:48.955Z,100077.71
2018-10-17T15:18:17.813Z,100070.68
2018-10-17T15:20:45.531Z,100075.92
2018-10-17T15:23:15.326Z,100076.06
2018-10-17T15:25:43.847Z,100074.42
2018-10-17T15:28:12.182Z,100076.06
2018-10-17T15:30:40.123Z,100074.13
2018-10-17T15:33:07.702Z,100069.45
2018-10-17T15:35:36.086Z,100071.05
2018-10-17T15:38:03.965Z,100076.36
2018-10-17T15:40:32.106Z,100080.14
2018-10-17T15:43:00.339Z,100079.21
2018-10-17T15:45:28.595Z,100082.13
2018-10-17T15:47:56.418Z,100087.48
2018-10-17T15:50:24.581Z,100087.16
2018-10-17T15:52:53.567Z,100090.38
2018-10-17T15:55:22.036Z,100091.69
2018-10-17T15:57:49.568Z,100090.01
2018-10-17T16:00:18.727Z,100097.63
2018-10-17T16:02:46.847Z,100101.54
2018-10-17T16:05:14.290Z,100091.52
2018-10-17T16:07:44.195Z,100100.12
2018-10-17T16:10:11.775Z,100098.73
2018-10-17T16:12:40.454Z,100104.61
2018-10-17T16:15:08.309Z,100105.09
2018-10-17T16:17:36.415Z,100103.69
2018-10-17T16:20:04.134Z,100109.38
2018-10-17T16:22:32.088Z,100111.70
2018-10-17T16:24:59.691Z,100105.36
2018-10-17T16:27:27.880Z,100109.36
2018-10-17T16:29:56.161Z,100113.52
2018-10-17T16:34:59.069Z,100119.95
2018-10-17T16:37:28.161Z,100119.86
2018-10-17T16:39:56.694Z,100117.05
2018-10-17T16:42:27.490Z,100121.34
2018-10-17T16:44:55.417Z,100135.09
2018-10-17T16:47:22.985Z,100131.28
2018-10-17T16:49:50.575Z,100127.58
2018-10-17T16:52:19.207Z,100142.33
2018-10-17T16:54:46.730Z,100134.95
2018-10-17T16:57:14.355Z,100137.16
2018-10-17T16:59:43.343Z,100142.11
2018-10-17T17:02:10.898Z,100151.44
2018-10-17T17:04:38.457Z,100152.45
2018-10-17T17:07:07.382Z,100162.78
2018-10-17T17:09:36.083Z,100163.81
2018-10-17T17:12:05.364Z,100164.00
2018-10-17T17:14:34.286Z,100170.92
2018-10-17T17:17:02.694Z,100174.98
2018-10-17T17:19:32.644Z,100171.42
2018-10-17T17:22:00.596Z,100175.81
2018-10-17T17:24:30.105Z,100175.97
2018-10-17T17:26:58.800Z,100178.51
2018-10-17T17:29:27.846Z,100181.05
2018-10-17T17:31:56.403Z,100188.45
2018-10-17T17:34:25.405Z,100184.05
2018-10-17T17:36:54.073Z,100184.22
2018-10-17T17:39:22.101Z,100191.12
2018-10-17T17:41:50.667Z,100186.39
2018-10-17T17:44:18.496Z,100192.92
2018-10-17T17:46:47.756Z,100202.48
2018-10-17T17:49:17.507Z,100197.59
2018-10-17T17:51:46.496Z,100199.74
2018-10-17T17:54:14.052Z,100206.45
2018-10-17T17:56:41.708Z,100202.38
2018-10-17T17:59:10.090Z,100205.90
2018-10-17T18:01:38.490Z,100201.15
2018-10-17T18:04:06.064Z,100210.20
2018-10-17T18:06:34.640Z,100206.65
2018-10-17T18:09:02.201Z,100210.31
2018-10-17T18:11:31.690Z,100213.00
2018-10-17T18:13:59.649Z,100212.63
2018-10-17T18:16:27.313Z,100214.60
2018-10-17T18:18:55.206Z,100225.52
2018-10-17T18:21:22.753Z,100221.09
2018-10-17T18:23:52.910Z,100227.78
2018-10-17T18:26:23.810Z,100227.06
2018-10-17T18:28:51.334Z,100236.94
2018-10-17T18:31:18.878Z,100231.30
2018-10-17T18:33:47.730Z,100233.88
2018-10-17T18:36:16.900Z,100244.89
2018-10-17T18:38:44.493Z,100246.31
2018-10-17T18:41:12.601Z,100248.75
2018-10-17T18:43:41.677Z,100251.73
2018-10-17T18:46:09.398Z,100243.75
2018-10-17T18:48:37.634Z,100252.80
2018-10-17T18:51:05.407Z,100255.94
2018-10-17T18:53:34.536Z,100265.78
2018-10-17T18:56:03.499Z,100266.58
2018-10-17T18:58:31.582Z,100267.86
2018-10-17T19:00:59.258Z,100264.42
2018-10-17T19:03:29.249Z,100275.63
2018-10-17T19:05:56.792Z,100271.36
2018-10-17T19:08:24.298Z,100271.43
2018-10-17T19:10:54.302Z,100276.42
2018-10-17T19:13:21.875Z,100282.87
2018-10-17T19:15:50.069Z,100277.80
2018-10-17T19:18:18.021Z,100284.97
2018-10-17T19:20:46.761Z,100284.28
2018-10-17T19:23:14.365Z,100294.81
2018-10-17T19:25:42.649Z,100288.37
2018-10-17T19:28:11.838Z,100297.73
2018-10-17T19:30:39.369Z,100299.52
2018-10-17T19:33:07.484Z,100301.14
2018-10-17T19:35:36.659Z,100295.59
2018-10-17T19:38:04.169Z,100304.13
2018-10-17T19:40:33.551Z,100295.38
2018-10-17T19:43:01.342Z,100299.41
2018-10-17T19:45:28.852Z,100304.05
2018-10-17T19:47:56.813Z,100301.75
2018-10-17T19:50:24.377Z,100301.37
2018-10-17T19:52:52.907Z,100301.75
2018-10-17T19:55:20.709Z,100303.56
2018-10-17T19:57:50.073Z,100305.39
2018-10-17T20:00:19.304Z,100309.08
2018-10-17T20:02:49.431Z,100308.34
2018-10-17T20:05:18.337Z,100306.57
2018-10-17T20:07:46.748Z,100306.49
2018-10-17T20:10:16.302Z,100304.11
2018-10-17T20:12:44.453Z,100306.72
2018-10-17T20:15:12.744Z,100311.05
2018-10-17T20:17:43.156Z,100311.83
2018-10-17T20:20:11.783Z,100313.95
2018-10-17T20:22:39.865Z,100317.51
2018-10-17T20:25:07.995Z,100316.77
2018-10-17T20:27:37.292Z,100319.23
2018-10-17T20:30:04.782Z,100323.17
2018-10-17T20:32:32.945Z,100320.78
2018-10-17T20:35:00.489Z,100321.91
2018-10-17T20:37:28.010Z,100325.23
2018-10-17T20:39:55.921Z,100329.25
2018-10-17T20:42:23.580Z,100327.83
2018-10-17T20:44:53.026Z,100327.13
2018-10-17T20:47:23.994Z,100323.75
2018-10-17T20:49:51.532Z,100331.06
2018-10-17T20:52:20.750Z,100324.02
2018-10-17T20:54:49.812Z,100328.03
2018-10-17T20:57:18.326Z,100329.32
2018-10-17T20:59:46.704Z,100335.68
2018-10-17T21:02:15.385Z,100333.25
2018-10-17T21:04:42.909Z,100336.88
2018-10-17T21:07:10.465Z,100343.70
2018-10-17T21:09:40.002Z,100343.48
2018-10-17T21:12:07.497Z,100335.57
2018-10-17T21:14:38.060Z,100341.09
2018-10-17T21:17:06.751Z,100335.86
2018-10-17T21:19:34.333Z,100340.01
2018-10-17T21:22:02.570Z,100336.28
2018-10-17T21:24:30.470Z,100335.06
2018-10-17T21:26:58.790Z,100341.06
2018-10-17T21:29:27.390Z,100338.87
2018-10-17T21:31:56.314Z,100341.55
2018-10-17T21:34:23.861Z,100342.06
2018-10-17T21:36:51.387Z,100342.89
2018-10-17T21:39:19.250Z,100344.73
2018-10-17T21:41:47.424Z,100347.55
2018-10-17T21:44:15.094Z,100352.56
2018-10-17T21:46:43.484Z,100342.83
2018-10-17T21:49:12.044Z,100340.84
2018-10-17T21:51:40.069Z,100343.53
2018-10-17T21:54:08.117Z,100344.16
2018-10-17T21:56:35.644Z,100337.72
2018-10-17T21:59:04.114Z,100343.38
2018-10-17T22:01:31.943Z,100338.14
2018-10-17T22:03:59.444Z,100342.31
2018-10-17T22:06:27.016Z,100341.58
2018-10-17T22:08:54.520Z,100336.98
2018-10-17T22:11:22.367Z,100339.95
2018-10-17T22:13:50.669Z,100340.43
2018-10-17T22:16:18.438Z,100337.05
2018-10-17T22:18:46.441Z,100347.77
2018-10-17T22:21:13.953Z,100342.53
2018-10-17T22:23:42.050Z,100335.13
2018-10-17T22:26:09.779Z,100339.56
2018-10-17T22:28:37.625Z,100347.38
2018-10-17T22:31:05.155Z,100346.09
2018-10-17T22:33:33.665Z,100347.97
2018-10-17T22:36:02.216Z,100353.83
2018-10-17T22:38:29.723Z,100346.83
2018-10-17T22:40:57.475Z,100354.06
2018-10-17T22:43:25.441Z,100352.77
2018-10-17T22:45:53.875Z,100352.82
2018-10-17T22:48:21.380Z,100348.70
2018-10-17T22:50:49.475Z,100351.78
2018-10-17T22:53:18.666Z,100343.44
2018-10-17T22:55:46.822Z,100349.19
2018-10-17T22:58:15.493Z,100343.02
2018-10-17T23:00:45.677Z,100347.91
2018-10-17T23:03:13.206Z,100346.49
2018-10-17T23:05:40.744Z,100351.25
2018-10-17T23:08:08.712Z,100354.45
2018-10-17T23:10:37.862Z,100360.19
2018-10-17T23:13:06.829Z,100353.39
2018-10-17T23:15:34.462Z,100352.44
2018-10-17T23:18:02.074Z,100356.73
2018-10-17T23:20:29.628Z,100350.78
2018-10-17T23:22:58.066Z,100353.85
2018-10-17T23:25:25.581Z,100354.95
2018-10-17T23:27:53.071Z,100352.16
2018-10-17T23:30:21.053Z,100352.78
2018-10-17T23:32:49.089Z,100350.73
2018-10-17T23:35:16.589Z,100349.28
2018-10-17T23:37:44.432Z,100350.89
2018-10-17T23:40:11.966Z,100349.07
2018-10-17T23:42:39.539Z,100357.48
2018-10-17T23:45:07.484Z,100360.14
2018-10-17T23:47:35.913Z,100356.63
2018-10-17T23:50:03.485Z,100352.14
2018-10-17T23:52:32.596Z,100358.61
2018-10-17T23:55:00.562Z,100355.94
2018-10-17T23:57:28.080Z,100355.08
2018-10-17T23:59:55.653Z,100355.20
